createdAt,value
2018-05-13T00:05:42.124Z,18.90
2018-05-13T00:14:41.635Z,18.90
2018-05-13T00:23:42.147Z,18.90
2018-05-13T00:29:41.891Z,18.70
2018-05-13T00:35:41.743Z,18.80
2018-05-13T00:44:42.217Z,18.60
2018-05-13T00:50:42.161Z,18.60
2018-05-13T01:02:45.104Z,17.90
2018-05-13T01:05:41.442Z,17.80
2018-05-13T01:14:42.151Z,17.80
2018-05-13T01:23:42.103Z,18.00
2018-05-13T01:35:41.877Z,18.10
2018-05-13T01:41:41.733Z,18.20
2018-05-13T01:53:43.246Z,17.90
2018-05-13T01:56:41.811Z,17.90
2018-05-13T02:08:42.198Z,17.90
2018-05-13T02:20:41.496Z,17.80
2018-05-13T02:38:41.791Z,17.30
2018-05-13T02:50:41.881Z,17.50
2018-05-13T03:02:41.867Z,17.50
2018-05-13T03:11:42.135Z,17.50
2018-05-13T03:23:41.763Z,17.50
2018-05-13T03:29:41.697Z,17.40
2018-05-13T03:41:41.596Z,17.00
2018-05-13T03:59:41.971Z,17.10
2018-05-13T04:05:41.525Z,17.10
2018-05-13T04:14:42.394Z,17.20
2018-05-13T04:20:42.252Z,17.10
2018-05-13T04:26:41.796Z,17.20
2018-05-13T04:41:12.598Z,17.30
2018-05-13T04:43:44.367Z,17.20
2018-05-13T04:46:42.724Z,17.20
2018-05-13T04:55:41.822Z,17.40
2018-05-13T05:07:41.790Z,17.30
2018-05-13T05:19:42.234Z,17.40
2018-05-13T05:25:41.950Z,17.50
2018-05-13T05:34:42.413Z,17.50
2018-05-13T05:40:41.667Z,17.60
2018-05-13T05:49:42.313Z,17.40
2018-05-13T05:58:42.186Z,17.80
2018-05-13T06:04:41.946Z,17.90
2018-05-13T06:07:20.886Z,17.70
2018-05-13T06:09:49.987Z,17.80
2018-05-13T06:12:44.392Z,17.80
2018-05-13T06:15:43.455Z,18.00
2018-05-13T06:21:42.153Z,18.00
2018-05-13T06:30:14.185Z,18.30
2018-05-13T06:32:44.005Z,18.30
2018-05-13T06:35:43.610Z,18.30
2018-05-13T06:41:42.195Z,18.40
2018-05-13T06:44:10.419Z,18.60
2018-05-13T06:46:44.649Z,18.60
2018-05-13T06:49:12.879Z,18.70
2018-05-13T06:51:41.315Z,18.70
2018-05-13T06:56:53.810Z,18.70
2018-05-13T06:59:42.943Z,18.70
2018-05-13T07:05:42.230Z,19.00
2018-05-13T07:10:57.903Z,19.10
2018-05-13T07:13:43.648Z,19.20
2018-05-13T07:19:42.529Z,19.40
2018-05-13T07:24:56.324Z,19.50
2018-05-13T07:27:44.050Z,19.70
2018-05-13T07:30:42.483Z,19.70
2018-05-13T07:48:42.313Z,20.30
2018-05-13T07:54:42.120Z,20.60
2018-05-13T08:06:41.982Z,21.00
2018-05-13T08:12:42.056Z,21.20
2018-05-13T09:21:42.823Z,23.00
2018-05-13T09:30:42.410Z,23.30
2018-05-13T09:36:41.921Z,23.40
2018-05-13T09:45:42.256Z,23.40
2018-05-13T09:54:41.890Z,23.40
2018-05-13T10:09:42.450Z,23.90
2018-05-13T10:15:42.154Z,24.10
2018-05-13T10:21:42.008Z,24.20
2018-05-13T10:30:42.024Z,24.30
2018-05-13T10:39:42.412Z,24.10
2018-05-13T10:48:41.843Z,24.60
2018-05-13T11:06:42.359Z,24.70
2018-05-13T11:18:42.062Z,25.10
2018-05-13T11:27:42.574Z,25.10
2018-05-13T11:36:42.270Z,25.60
2018-05-13T11:42:41.995Z,25.40
2018-05-13T11:54:42.604Z,25.40
2018-05-13T12:00:42.241Z,25.50
2018-05-13T12:15:42.935Z,25.70
2018-05-13T12:24:42.728Z,25.90
2018-05-13T12:33:42.433Z,26.00
2018-05-13T12:45:42.232Z,26.20
2018-05-13T12:57:42.115Z,26.30
2018-05-13T13:09:42.796Z,26.60
2018-05-13T13:18:42.529Z,26.80
2018-05-13T13:27:42.443Z,26.70
2018-05-13T13:42:42.716Z,27.20
2018-05-13T13:51:42.854Z,27.20
2018-05-13T14:09:42.737Z,27.80
2018-05-13T14:15:42.506Z,27.80
2018-05-13T14:30:42.238Z,28.20
2018-05-13T14:48:42.827Z,27.70
2018-05-13T14:57:42.468Z,28.00
2018-05-13T15:06:42.994Z,28.00
2018-05-13T15:18:42.986Z,28.20
2018-05-13T15:21:26.826Z,27.80
2018-05-13T16:33:42.654Z,29.20
2018-05-13T16:42:42.680Z,29.00
2018-05-13T16:48:42.497Z,29.20
2018-05-13T17:00:42.591Z,29.50
2018-05-13T17:09:42.191Z,29.50
2018-05-13T17:24:42.539Z,29.80
2018-05-13T17:30:42.376Z,29.40
2018-05-13T17:42:42.714Z,29.40
2018-05-13T17:54:42.347Z,28.80
2018-05-13T18:06:43.029Z,28.70
2018-05-13T18:15:42.812Z,28.40
2018-05-13T18:24:42.336Z,28.10
2018-05-13T18:33:43.045Z,27.80
2018-05-13T18:36:42.183Z,27.80
2018-05-13T18:45:42.515Z,27.80
2018-05-13T18:54:42.441Z,27.40
2018-05-13T18:57:10.627Z,27.30
2018-05-13T18:59:39.129Z,27.30
2018-05-13T19:20:12.423Z,26.50
2018-05-13T19:22:44.007Z,26.50
2018-05-13T19:25:43.805Z,26.40
2018-05-13T19:28:42.604Z,26.20
2018-05-13T19:37:42.385Z,26.00
2018-05-13T19:43:42.440Z,25.50
2018-05-13T19:55:42.992Z,25.40
2018-05-13T20:01:42.350Z,25.30
2018-05-13T20:13:42.789Z,25.00
2018-05-13T20:22:42.574Z,24.50
2018-05-13T20:31:42.909Z,24.00
2018-05-13T20:37:42.945Z,23.90
2018-05-13T20:43:42.729Z,23.80
2018-05-13T20:49:42.577Z,23.60
2018-05-13T20:58:42.506Z,23.20
2018-05-13T21:04:42.374Z,23.00
2018-05-13T21:13:42.848Z,22.80
2018-05-13T21:25:42.711Z,22.30
2018-05-13T21:34:43.695Z,21.70
2018-05-13T21:43:42.568Z,21.50
2018-05-13T21:52:42.431Z,21.20
2018-05-13T22:01:42.533Z,21.10
2018-05-13T22:10:42.907Z,20.60
2018-05-13T22:19:42.860Z,20.60
2018-05-13T22:31:42.972Z,20.40
2018-05-13T22:43:42.640Z,20.00
2018-05-13T22:52:43.318Z,20.20
2018-05-13T22:58:42.388Z,20.00
2018-05-13T23:10:42.790Z,19.60
2018-05-13T23:19:42.339Z,19.50
2018-05-13T23:35:44.905Z,19.50
2018-05-13T23:41:44.068Z,19.50
2018-05-13T23:44:42.262Z,19.30
2018-05-13T23:50:43.142Z,19.30
2018-05-13T23:56:43.129Z,18.80
